Accueil
METAR-TAF:

METAR-TAF

Aéroports :

Aéroport de Dinard Pleurtuit Saint-Malo

Dinard, France

latitude: 48-35N, longitude: 002-04W, altitude: 65 m

Observation

Le bulletin a été fait il y a 23 minutes, à 11:30 UTC
Vent 12 kt de sud
Température 6°C
Humidité 65%
Pression 1010 hPa
Visibilité 10 km ou plus
pas de nuages en-dessous de 1500 mètres et pas de cumulonimbus.

METAR: LFRD 211130Z AUTO 17012KT CAVOK 06/M00 Q1010 NOSIG

Heure: 12:53 (11:53 UTC)

Prévision

Le bulletin a été fait il y a 53 minutes, à 11:00 UTC
Prévision valable du 21 à 12 UTC au 22 à 12 UTC
Vent 8 kt de est/sud-est
Visibilité 10 km ou plus
pas de nuages en-dessous de 1500 mètres et pas de cumulonimbus.
Temporairement
du 22 à 00 UTC au 22 à 08 UTC
Visibilité: 4000 m
brume
Evoluant progressivement
du 22 à 08 UTC au 22 à 10 UTC
Nuages fragmentés à une hauteur de 400 ft

TAF: LFRD 211100Z 2112/2212 12008KT CAVOK TEMPO 2200/2208 4000 BR BECMG 2208/2210 BKN004

Observations et prévisions météorologiques de plus de 4000 aéroports (messages METAR et TAF).

Les stations disponibles sont représentées par des disques jaunes et rouges sur la carte.

Passer la souris dessus pour voir le nom de la station.

Cliquer dessus pour voir les observations et prévisions météorologiques.

Pour changer de carte: cliquez sur les boutons verts avec une croix noire pour zoomer, sur le bouton vert avec un tiret pour effectuer un zoom arrière, ou sur les flèches vertes pour les cartes adjacentes.


METAR-TAF: